Time;durP1;ratioP1;P1;durP2;ratioP2;P2;SDS_P1;SDS_P2;PMS_P1;PMS_P2;Temp;Humidity;BMP_temperature;BMP_pressure;BME280_temperature;BME280_humidity;BME280_pressure;Samples;Min_cycle;Max_cycle;Signal;HPM_P1;HPM_P2
2023/05/09 00:00:09;;;;;;;49.33;32.47;;;;;;;15.11;100.00;101813.41;4977975;28;20053;-82
2023/05/09 00:02:38;;;;;;;120.38;89.68;;;;;;;15.05;100.00;101815.19;4996961;28;20046;-83
2023/05/09 00:05:08;;;;;;;99.32;70.25;;;;;;;14.95;100.00;101801.03;4991241;28;20055;-82
2023/05/09 00:07:36;;;;;;;65.93;44.13;;;;;;;14.87;100.00;101803.69;5001804;28;20755;-83
2023/05/09 00:10:06;;;;;;;51.80;34.77;;;;;;;14.83;100.00;101804.56;5010867;28;20037;-83
2023/05/09 00:12:33;;;;;;;46.78;32.05;;;;;;;14.79;100.00;101801.03;4983188;28;20296;-83
2023/05/09 00:15:01;;;;;;;49.45;34.20;;;;;;;14.77;100.00;101792.19;4955485;28;20068;-82
2023/05/09 00:17:28;;;;;;;51.58;33.72;;;;;;;14.75;100.00;101796.59;5034099;28;20049;-82
2023/05/09 00:19:55;;;;;;;61.08;38.17;;;;;;;14.69;100.00;101791.28;5009598;28;20053;-81
2023/05/09 00:22:22;;;;;;;54.00;33.72;;;;;;;14.62;100.00;101777.13;5010970;28;20049;-82
2023/05/09 00:24:50;;;;;;;56.17;35.90;;;;;;;14.59;100.00;101778.88;5014221;28;20072;-81
2023/05/09 00:27:18;;;;;;;58.20;37.72;;;;;;;14.56;100.00;101776.22;4979704;28;20057;-82
2023/05/09 00:29:45;;;;;;;66.32;38.53;;;;;;;14.50;100.00;101771.78;4955521;28;20057;-81
2023/05/09 00:32:12;;;;;;;57.90;35.83;;;;;;;14.44;100.00;101766.44;4996414;28;20060;-82
2023/05/09 00:34:43;;;;;;;57.50;33.95;;;;;;;14.41;100.00;101770.00;4988697;28;20046;-83
2023/05/09 00:37:10;;;;;;;59.05;33.42;;;;;;;14.40;100.00;101769.97;5007175;28;20611;-81
2023/05/09 00:39:37;;;;;;;74.13;38.53;;;;;;;14.39;100.00;101763.81;4994480;28;20060;-83
2023/05/09 00:42:05;;;;;;;63.70;36.50;;;;;;;14.38;100.00;101763.78;4998621;28;20494;-81
2023/05/09 00:44:32;;;;;;;68.45;37.63;;;;;;;14.35;100.00;101750.53;4961526;28;20049;-82
2023/05/09 00:47:00;;;;;;;63.22;37.75;;;;;;;14.28;100.00;101760.25;5011301;28;20053;-83
2023/05/09 00:49:27;;;;;;;65.30;37.70;;;;;;;14.23;100.00;101756.69;4986618;28;20049;-83
2023/05/09 00:51:56;;;;;;;65.07;37.45;;;;;;;14.15;100.00;101761.09;4993687;28;20054;-83
2023/05/09 00:54:25;;;;;;;64.15;35.35;;;;;;;14.08;100.00;101749.56;4985588;28;20049;-83
2023/05/09 00:56:52;;;;;;;67.80;35.67;;;;;;;14.05;100.00;101744.28;5012388;28;20060;-83
2023/05/09 00:59:20;;;;;;;66.70;36.00;;;;;;;13.98;100.00;101743.34;4980794;28;20530;-81
2023/05/09 01:01:48;;;;;;;64.32;33.33;;;;;;;13.95;100.00;101746.03;4999838;28;20714;-83
2023/05/09 01:04:16;;;;;;;60.67;33.40;;;;;;;13.95;100.00;101742.47;4996446;28;20056;-81
2023/05/09 01:07:09;;;;;;;62.47;34.17;;;;;;;13.94;100.00;101736.28;4975547;28;20037;-83
2023/05/09 01:09:48;;;;;;;62.55;32.42;;;;;;;13.97;100.00;101727.44;4999019;28;20922;-83
2023/05/09 01:12:23;;;;;;;65.05;32.78;;;;;;;13.97;100.00;101728.34;5011013;28;20530;-82
2023/05/09 01:15:32;;;;;;;73.15;35.00;;;;;;;13.97;100.00;101723.06;5010712;28;20068;-83
2023/05/09 01:18:10;;;;;;;58.53;31.63;;;;;;;13.98;100.00;101719.50;4983091;28;20046;-83
2023/05/09 01:21:02;;;;;;;69.22;34.42;;;;;;;13.96;100.00;101702.72;5007978;28;20128;-82
2023/05/09 01:23:42;;;;;;;76.40;36.55;;;;;;;13.97;100.00;101695.66;4995469;28;20053;-83
2023/05/09 01:26:29;;;;;;;75.75;36.10;;;;;;;13.96;100.00;101700.06;4991426;28;20045;-82
2023/05/09 01:29:30;;;;;;;66.07;34.40;;;;;;;13.97;100.00;101695.66;5024715;28;20053;-82
2023/05/09 01:32:01;;;;;;;72.90;36.83;;;;;;;13.98;100.00;101690.38;4987512;28;20049;-82
2023/05/09 01:34:31;;;;;;;70.72;38.53;;;;;;;13.99;100.00;101688.63;5013832;28;20049;-83
2023/05/09 01:37:01;;;;;;;67.72;35.80;;;;;;;13.99;100.00;101686.84;5024573;28;20056;-82
2023/05/09 01:39:32;;;;;;;68.50;37.08;;;;;;;14.02;100.00;101694.78;4995105;28;20056;-83
2023/05/09 01:42:03;;;;;;;67.20;35.47;;;;;;;14.07;100.00;101691.28;5003064;28;20057;-83
2023/05/09 01:44:36;;;;;;;68.60;36.88;;;;;;;14.09;100.00;101682.44;5004555;28;20068;-82
2023/05/09 01:47:06;;;;;;;65.63;35.78;;;;;;;14.12;100.00;101674.50;4972974;28;20053;-82
2023/05/09 01:49:38;;;;;;;57.78;34.85;;;;;;;14.15;100.00;101673.63;5010821;28;20041;-83
2023/05/09 01:52:10;;;;;;;66.97;36.63;;;;;;;14.16;100.00;101670.09;4988857;28;20054;-83
2023/05/09 01:54:39;;;;;;;55.17;32.05;;;;;;;14.19;100.00;101672.75;5008698;28;20057;-83
2023/05/09 01:57:08;;;;;;;53.72;31.45;;;;;;;14.22;100.00;101667.44;4967870;28;20052;-82
2023/05/09 01:59:40;;;;;;;52.85;30.73;;;;;;;14.23;100.00;101666.56;5002662;28;20080;-83
2023/05/09 02:02:07;;;;;;;53.58;31.38;;;;;;;14.25;100.00;101662.13;5003020;28;20406;-81
2023/05/09 02:04:36;;;;;;;56.55;32.67;;;;;;;14.27;100.00;101664.78;4983531;28;20049;-82
2023/05/09 02:07:05;;;;;;;56.65;32.03;;;;;;;14.27;100.00;101665.66;4992024;28;20029;-82
2023/05/09 02:09:32;;;;;;;54.67;31.50;;;;;;;14.28;100.00;101669.22;4992638;28;20060;-82
2023/05/09 02:12:00;;;;;;;44.65;26.85;;;;;;;14.27;100.00;101673.63;4974263;28;20101;-82
2023/05/09 02:14:27;;;;;;;40.40;25.02;;;;;;;14.28;100.00;101671.88;4989022;28;20128;-82
2023/05/09 02:16:54;;;;;;;41.65;24.05;;;;;;;14.28;100.00;101679.84;5011705;28;20040;-82
2023/05/09 02:19:22;;;;;;;29.92;19.95;;;;;;;14.28;100.00;101678.06;4975489;28;20459;-82
2023/05/09 02:21:50;;;;;;;31.52;20.58;;;;;;;14.28;100.00;101667.44;5012218;28;20045;-82
2023/05/09 02:24:17;;;;;;;18.75;14.35;;;;;;;14.28;100.00;101675.41;4987848;28;20056;-82
2023/05/09 02:30:46;;;;;;;17.27;13.73;;;;;;;14.22;100.00;101663.03;5021833;28;20042;-82
2023/05/09 02:33:13;;;;;;;15.65;12.85;;;;;;;14.22;100.00;101656.84;5007356;28;20308;-82
2023/05/09 02:35:44;;;;;;;13.20;11.50;;;;;;;14.21;100.00;101655.97;4974158;28;20045;-83
2023/05/09 02:38:13;;;;;;;12.35;11.18;;;;;;;14.20;100.00;101650.66;4996431;28;20052;-82
2023/05/09 02:40:43;;;;;;;12.35;11.15;;;;;;;14.17;100.00;101655.94;5006622;28;20044;-83
2023/05/09 02:43:10;;;;;;;14.02;12.52;;;;;;;14.14;100.00;101643.59;5000387;28;20058;-81
2023/05/09 02:45:37;;;;;;;16.25;13.02;;;;;;;14.13;100.00;101640.94;5030191;28;20057;-82
2023/05/09 02:48:05;;;;;;;12.75;11.45;;;;;;;14.11;100.00;101646.22;4984644;28;20065;-80
2023/05/09 02:50:37;;;;;;;11.82;10.68;;;;;;;14.09;100.00;101642.69;4951277;28;20046;-83
2023/05/09 02:53:05;;;;;;;12.05;10.82;;;;;;;14.08;100.00;101634.72;5020487;28;20060;-83
2023/05/09 02:55:32;;;;;;;11.82;10.63;;;;;;;14.07;100.00;101630.34;4997444;28;20130;-83
2023/05/09 02:58:00;;;;;;;12.50;9.80;;;;;;;14.04;100.00;101623.25;5007949;28;20415;-82
2023/05/09 03:00:41;;;;;;;12.18;10.82;;;;;;;14.03;100.00;101632.09;5010414;28;20042;-83
2023/05/09 03:03:08;;;;;;;11.32;10.25;;;;;;;14.02;100.00;101628.53;5010988;28;20129;-83
2023/05/09 03:05:35;;;;;;;14.68;10.70;;;;;;;13.99;100.00;101620.59;5012389;28;20072;-83
2023/05/09 03:08:03;;;;;;;12.15;10.98;;;;;;;13.97;100.00;101617.06;4959616;28;20057;-82
2023/05/09 03:10:33;;;;;;;11.43;10.25;;;;;;;13.94;100.00;101611.75;4986982;28;20042;-83
2023/05/09 03:13:00;;;;;;;11.45;10.13;;;;;;;13.92;100.00;101616.16;5006926;28;20057;-82
2023/05/09 03:15:28;;;;;;;13.85;12.55;;;;;;;13.91;100.00;101616.16;4988520;28;20050;-83
2023/05/09 03:17:58;;;;;;;14.27;12.82;;;;;;;13.89;100.00;101616.16;4979978;28;20069;-82
2023/05/09 03:20:26;;;;;;;14.57;13.00;;;;;;;13.88;100.00;101609.09;5008985;28;20054;-82
2023/05/09 03:22:54;;;;;;;16.45;12.98;;;;;;;13.87;100.00;101609.97;4952046;28;20050;-83
2023/05/09 03:25:21;;;;;;;15.48;11.40;;;;;;;13.86;100.00;101607.34;4998569;28;20136;-83
2023/05/09 03:27:50;;;;;;;14.13;12.63;;;;;;;13.84;100.00;101602.91;5031933;28;20053;-83
2023/05/09 03:30:17;;;;;;;13.20;11.20;;;;;;;13.84;100.00;101596.72;4982848;28;20050;-83
2023/05/09 03:32:47;;;;;;;13.95;12.55;;;;;;;13.86;100.00;101607.34;4996653;28;20514;-83
2023/05/09 03:35:15;;;;;;;14.63;12.52;;;;;;;13.87;100.00;101593.19;5009692;28;20053;-82
2023/05/09 03:37:43;;;;;;;14.02;12.50;;;;;;;13.87;100.00;101599.38;4958382;28;20050;-83
2023/05/09 03:40:11;;;;;;;15.02;12.40;;;;;;;13.88;100.00;101601.16;4989825;28;20056;-83
2023/05/09 03:42:48;;;;;;;13.38;11.98;;;;;;;13.89;100.00;101600.25;4992056;28;20060;-81
2023/05/09 03:45:15;;;;;;;14.80;13.27;;;;;;;13.88;100.00;101594.97;5001484;28;20054;-83
2023/05/09 03:47:45;;;;;;;15.20;13.43;;;;;;;13.88;100.00;101598.50;4997229;28;20411;-83
2023/05/09 03:50:12;;;;;;;16.15;13.10;;;;;;;13.88;100.00;101592.31;4978093;28;20057;-83
2023/05/09 03:52:41;;;;;;;18.48;14.05;;;;;;;13.87;100.00;101594.06;4981289;28;20042;-83
2023/05/09 03:55:10;;;;;;;19.08;14.48;;;;;;;13.85;100.00;101585.25;4958343;28;20080;-82
2023/05/09 03:57:38;;;;;;;14.98;12.35;;;;;;;13.84;100.00;101583.50;4994945;28;20053;-83
2023/05/09 04:00:06;;;;;;;18.45;14.45;;;;;;;13.84;100.00;101589.66;5003217;28;20053;-81
2023/05/09 04:02:41;;;;;;;17.27;13.05;;;;;;;13.83;100.00;101581.69;4988876;28;20049;-83
2023/05/09 04:05:15;;;;;;;16.60;14.60;;;;;;;13.81;100.00;101581.69;5022422;28;20515;-83
2023/05/09 04:07:43;;;;;;;15.07;13.57;;;;;;;13.82;100.00;101585.25;5009799;28;20079;-83
2023/05/09 04:10:11;;;;;;;15.88;13.70;;;;;;;13.82;100.00;101579.97;4952121;28;20503;-83
2023/05/09 04:12:38;;;;;;;15.45;13.40;;;;;;;13.80;100.00;101582.59;4996979;28;20045;-83
2023/05/09 04:15:06;;;;;;;18.55;15.13;;;;;;;13.80;100.00;101581.72;4989023;28;20056;-81
2023/05/09 04:17:35;;;;;;;16.05;14.45;;;;;;;13.77;100.00;101577.28;5027542;28;20054;-82
2023/05/09 04:20:03;;;;;;;16.10;14.40;;;;;;;13.77;100.00;101585.22;4979655;28;20050;-82
2023/05/09 04:22:30;;;;;;;16.88;14.07;;;;;;;13.77;100.00;101576.41;4997362;28;20420;-81
2023/05/09 04:24:59;;;;;;;18.88;14.63;;;;;;;13.78;100.00;101575.50;4948514;28;20076;-82
2023/05/09 04:27:27;;;;;;;17.63;14.63;;;;;;;13.78;100.00;101579.06;5008628;28;20045;-82
2023/05/09 04:29:54;;;;;;;19.05;14.07;;;;;;;13.78;100.00;101573.75;5012995;28;20052;-83
2023/05/09 04:32:22;;;;;;;15.18;12.95;;;;;;;13.78;100.00;101572.84;4995595;28;20053;-82
2023/05/09 04:34:50;;;;;;;15.90;13.75;;;;;;;13.79;100.00;101574.63;4995761;28;20045;-82
2023/05/09 04:37:22;;;;;;;15.05;13.02;;;;;;;13.80;100.00;101581.72;4990378;28;20046;-83
2023/05/09 04:39:49;;;;;;;15.40;12.95;;;;;;;13.80;100.00;101565.81;4954668;28;20037;-83
2023/05/09 04:42:23;;;;;;;16.00;14.30;;;;;;;13.80;100.00;101573.78;4969349;28;20052;-83
2023/05/09 04:44:51;;;;;;;15.27;13.30;;;;;;;13.80;100.00;101565.81;4998188;28;20061;-83
2023/05/09 04:47:20;;;;;;;15.95;13.43;;;;;;;13.80;100.00;101561.41;4996096;28;20077;-83
2023/05/09 04:49:48;;;;;;;15.85;13.23;;;;;;;13.79;100.00;101559.63;4997997;28;20068;-82
2023/05/09 04:52:15;;;;;;;15.90;13.02;;;;;;;13.79;100.00;101559.63;5005950;28;20411;-83
2023/05/09 04:54:43;;;;;;;14.77;13.20;;;;;;;13.81;100.00;101560.50;5001297;28;20049;-83
2023/05/09 04:57:13;;;;;;;15.13;13.23;;;;;;;13.83;100.00;101558.75;4950761;28;20041;-82
2023/05/09 04:59:51;;;;;;;14.38;12.60;;;;;;;13.85;100.00;101556.09;4990846;28;20068;-82
2023/05/09 05:02:20;;;;;;;15.40;13.20;;;;;;;13.88;100.00;101558.75;4995084;28;20049;-81
2023/05/09 05:04:49;;;;;;;15.02;12.55;;;;;;;13.89;100.00;101552.56;5010555;28;20053;-84
2023/05/09 05:07:16;;;;;;;21.83;17.60;;;;;;;13.91;100.00;101542.84;4996375;28;20072;-81
2023/05/09 05:09:44;;;;;;;18.35;14.35;;;;;;;13.94;100.00;101549.94;5004416;28;20045;-81
2023/05/09 05:12:12;;;;;;;18.38;14.27;;;;;;;13.95;100.00;101543.72;4945260;28;20064;-81
2023/05/09 05:14:41;;;;;;;16.42;14.52;;;;;;;13.99;100.00;101537.59;4985953;28;20042;-81
2023/05/09 05:17:11;;;;;;;19.08;14.50;;;;;;;13.99;100.00;101533.16;4995559;28;20514;-83
2023/05/09 05:19:38;;;;;;;18.65;14.73;;;;;;;14.02;100.00;101535.78;4996283;28;20050;-84
2023/05/09 05:22:07;;;;;;;20.55;15.38;;;;;;;14.02;100.00;101524.31;4993414;28;20060;-83
2023/05/09 05:24:38;;;;;;;15.57;13.95;;;;;;;14.06;100.00;101527.84;4982136;28;20053;-82
2023/05/09 05:27:05;;;;;;;18.15;15.05;;;;;;;14.11;100.00;101528.72;4956536;28;20356;-82
2023/05/09 05:29:34;;;;;;;17.83;14.98;;;;;;;14.16;100.00;101533.16;4983277;28;20064;-81
2023/05/09 05:32:01;;;;;;;18.65;15.93;;;;;;;14.19;100.00;101517.22;5004040;28;20042;-81
2023/05/09 05:34:30;;;;;;;20.52;16.58;;;;;;;14.26;100.00;101515.47;5005555;28;20060;-80
2023/05/09 05:36:57;;;;;;;19.95;15.85;;;;;;;14.32;100.00;101525.19;4996395;28;20060;-81
2023/05/09 05:39:25;;;;;;;16.88;15.15;;;;;;;14.35;100.00;101525.19;4989410;28;20399;-82
2023/05/09 05:41:53;;;;;;;18.88;15.20;;;;;;;14.38;100.00;101523.38;5012776;28;20924;-82
2023/05/09 05:44:20;;;;;;;18.55;15.73;;;;;;;14.45;100.00;101518.09;4976776;28;20430;-81
2023/05/09 05:46:49;;;;;;;18.58;15.93;;;;;;;14.49;100.00;101519.84;4994634;28;20068;-83
2023/05/09 05:49:16;;;;;;;16.35;14.35;;;;;;;14.51;100.00;101518.94;4999506;28;20399;-82
2023/05/09 05:51:43;;;;;;;17.05;15.07;;;;;;;14.54;100.00;101518.06;4984633;28;20049;-82
2023/05/09 05:54:11;;;;;;;17.95;14.55;;;;;;;14.57;100.00;101510.13;5027286;28;20054;-80
2023/05/09 05:56:38;;;;;;;17.90;16.02;;;;;;;14.61;100.00;101504.81;5001149;28;20566;-81
2023/05/09 05:59:08;;;;;;;18.65;15.63;;;;;;;14.68;100.00;101504.78;4961382;28;20046;-81
2023/05/09 06:01:38;;;;;;;;;;;;;;;14.72;100.00;101511.84;5025878;28;20040;-81
2023/05/09 06:04:06;;;;;;;19.33;17.08;;;;;;;14.75;100.00;101501.25;5012684;28;20444;-80
2023/05/09 06:06:34;;;;;;;18.17;15.82;;;;;;;14.77;100.00;101500.34;5010049;28;20060;-81
2023/05/09 06:09:01;;;;;;;18.42;16.40;;;;;;;14.79;100.00;101500.34;4986290;28;20056;-80
2023/05/09 06:11:29;;;;;;;18.65;16.55;;;;;;;14.81;100.00;101502.06;4988526;28;20049;-81
2023/05/09 06:13:58;;;;;;;19.48;16.73;;;;;;;14.82;100.00;101487.06;4972486;28;20053;-81
2023/05/09 06:16:26;;;;;;;20.70;17.20;;;;;;;14.82;100.00;101487.06;4971002;28;20045;-81
2023/05/09 06:18:54;;;;;;;20.67;16.25;;;;;;;14.84;100.00;101490.59;4994633;28;20079;-82
2023/05/09 06:21:23;;;;;;;18.20;16.13;;;;;;;14.89;100.00;101487.91;5009411;28;20072;-80
2023/05/09 06:23:51;;;;;;;19.77;16.13;;;;;;;14.90;100.00;101484.38;4986689;28;20048;-81
2023/05/09 06:26:38;;;;;;;21.98;18.63;;;;;;;14.92;100.00;101479.94;4989046;28;20048;-81
2023/05/09 06:29:06;;;;;;;18.58;15.90;;;;;;;14.94;100.00;101475.50;4998123;28;20045;-82
2023/05/09 06:31:37;;;;;;;21.38;16.92;;;;;;;14.97;100.00;101472.81;4954545;28;20418;-81
2023/05/09 06:34:05;;;;;;;18.73;16.27;;;;;;;14.99;100.00;101463.97;5023825;28;20049;-81
2023/05/09 06:36:33;;;;;;;19.63;17.55;;;;;;;15.05;100.00;101464.81;4996326;28;20057;-81
2023/05/09 06:39:01;;;;;;;24.42;16.88;;;;;;;15.06;100.00;101456.84;5001345;28;20049;-81
2023/05/09 06:41:28;;;;;;;21.35;18.13;;;;;;;15.10;100.00;101455.06;5011786;28;20049;-80
2023/05/09 06:43:55;;;;;;;18.65;16.65;;;;;;;15.09;100.00;101454.19;4988495;28;20514;-81
2023/05/09 06:46:23;;;;;;;19.33;17.23;;;;;;;15.10;100.00;101434.69;4940716;28;20049;-80
2023/05/09 06:48:50;;;;;;;35.75;17.70;;;;;;;15.09;100.00;101443.56;5007879;28;20042;-81
2023/05/09 06:51:18;;;;;;;23.08;18.20;;;;;;;15.07;100.00;101434.75;4994858;28;20058;-81
2023/05/09 06:53:45;;;;;;;19.55;17.40;;;;;;;15.07;100.00;101437.41;4975119;28;20056;-82
2023/05/09 06:56:13;;;;;;;21.48;17.38;;;;;;;15.09;100.00;101434.75;4994964;28;20065;-81
2023/05/09 06:58:40;;;;;;;22.98;18.23;;;;;;;15.13;100.00;101437.34;5018262;28;20041;-81
2023/05/09 07:01:07;;;;;;;21.83;19.33;;;;;;;15.17;100.00;101432.91;4972407;28;20056;-81
2023/05/09 07:03:35;;;;;;;20.80;18.38;;;;;;;15.21;100.00;101426.69;5002729;28;20412;-80
2023/05/09 07:06:02;;;;;;;19.17;17.08;;;;;;;15.27;100.00;101412.47;4992897;28;20062;-81
2023/05/09 07:08:29;;;;;;;19.52;16.48;;;;;;;15.36;100.00;101415.06;4994794;28;20060;-81
2023/05/09 07:10:57;;;;;;;20.63;18.10;;;;;;;15.43;100.00;101411.47;5018786;28;20056;-80
2023/05/09 07:13:30;;;;;;;23.80;18.27;;;;;;;15.52;100.00;101414.06;5011027;28;20053;-80
2023/05/09 07:15:58;;;;;;;20.40;17.10;;;;;;;15.65;100.00;101411.28;4993423;28;20079;-81
2023/05/09 07:18:25;;;;;;;20.92;17.65;;;;;;;15.75;100.00;101413.03;4948602;28;20041;-81
2023/05/09 07:20:52;;;;;;;19.20;17.17;;;;;;;15.83;100.00;101410.28;4989007;28;20046;-80
2023/05/09 07:23:20;;;;;;;20.85;17.85;;;;;;;15.89;100.00;101403.13;4971282;28;20130;-81
2023/05/09 07:25:47;;;;;;;19.30;17.27;;;;;;;15.95;100.00;101400.41;5012383;28;20411;-82
2023/05/09 07:28:14;;;;;;;25.98;17.85;;;;;;;15.95;100.00;101400.41;4978433;28;20049;-80
2023/05/09 07:30:42;;;;;;;21.48;16.88;;;;;;;15.95;100.00;101399.50;4990828;28;20042;-81
2023/05/09 07:33:09;;;;;;;20.23;18.13;;;;;;;15.91;100.00;101403.97;4952426;28;20068;-81
2023/05/09 07:35:37;;;;;;;18.92;16.95;;;;;;;15.90;100.00;101404.91;5004079;28;20553;-81
2023/05/09 07:38:05;;;;;;;20.35;17.95;;;;;;;15.88;100.00;101400.47;5011291;28;20053;-80
2023/05/09 07:40:35;;;;;;;20.15;18.08;;;;;;;15.87;100.00;101391.63;4996146;28;20518;-81
2023/05/09 07:43:02;;;;;;;20.13;17.67;;;;;;;15.85;100.00;101390.75;4981804;28;20049;-80
2023/05/09 07:45:29;;;;;;;23.90;20.08;;;;;;;15.85;100.00;101381.91;4990613;28;20056;-81
2023/05/09 07:47:57;;;;;;;22.35;18.98;;;;;;;15.84;100.00;101378.38;4956589;28;20475;-81
2023/05/09 07:50:24;;;;;;;24.90;19.75;;;;;;;15.84;100.00;101378.38;5005707;28;20049;-80
2023/05/09 07:52:52;;;;;;;25.67;20.73;;;;;;;15.86;100.00;101378.34;5008256;28;20378;-81
2023/05/09 07:55:20;;;;;;;25.70;22.15;;;;;;;15.86;100.00;101375.69;4997272;28;20102;-81
2023/05/09 07:57:47;;;;;;;29.02;22.88;;;;;;;15.84;100.00;101373.06;4982533;28;20054;-82
2023/05/09 08:00:15;;;;;;;28.65;21.20;;;;;;;15.84;100.00;101370.41;4997480;28;20053;-82
2023/05/09 08:02:42;;;;;;;25.92;22.08;;;;;;;15.90;100.00;101370.34;5007069;28;20071;-81
2023/05/09 08:05:10;;;;;;;28.60;22.73;;;;;;;15.98;100.00;101367.59;4947519;28;20048;-81
2023/05/09 08:07:38;;;;;;;31.88;23.63;;;;;;;16.04;100.00;101364.00;4984572;28;20045;-82
2023/05/09 08:10:06;;;;;;;31.17;24.40;;;;;;;16.09;100.00;101348.88;5011412;28;20494;-81
2023/05/09 08:12:33;;;;;;;33.25;24.20;;;;;;;16.12;100.00;101352.38;4997343;28;21106;-82
2023/05/09 08:15:00;;;;;;;30.98;24.15;;;;;;;16.13;100.00;101348.81;5000285;28;20418;-82
2023/05/09 08:17:28;;;;;;;32.28;23.70;;;;;;;16.13;100.00;101346.16;5007031;28;24419;-82
2023/05/09 08:19:55;;;;;;;30.00;23.23;;;;;;;16.13;100.00;101348.81;4956560;28;20053;-81
2023/05/09 08:22:23;;;;;;;33.60;23.15;;;;;;;16.12;100.00;101349.72;4996718;28;20061;-82
2023/05/09 08:24:50;;;;;;;31.27;25.05;;;;;;;16.08;100.00;101339.13;4990088;28;20053;-81
2023/05/09 08:27:18;;;;;;;32.03;23.05;;;;;;;16.05;100.00;101341.81;4997207;28;20056;-81
2023/05/09 08:29:46;;;;;;;34.13;22.85;;;;;;;16.02;100.00;101341.88;5016251;28;20052;-81
2023/05/09 08:32:13;;;;;;;36.75;24.50;;;;;;;15.98;100.00;101339.22;4983780;28;20049;-81
2023/05/09 08:34:40;;;;;;;34.70;24.00;;;;;;;15.94;100.00;101340.16;4952542;28;20053;-82
2023/05/09 08:37:08;;;;;;;28.33;22.88;;;;;;;15.91;100.00;101334.88;4980876;28;20050;-81
2023/05/09 08:39:35;;;;;;;32.63;24.08;;;;;;;15.89;100.00;101335.81;4992517;28;20053;-81
2023/05/09 08:42:03;;;;;;;39.33;24.63;;;;;;;15.86;100.00;101339.38;4997062;28;20049;-81
2023/05/09 08:44:31;;;;;;;36.97;25.42;;;;;;;15.84;100.00;101338.53;5013924;28;20058;-82
2023/05/09 08:47:00;;;;;;;36.47;26.33;;;;;;;15.81;100.00;101335.88;4990476;28;20056;-82
2023/05/09 08:49:28;;;;;;;35.47;24.35;;;;;;;15.78;100.00;101336.81;4983166;28;20045;-82
2023/05/09 08:51:56;;;;;;;40.60;26.20;;;;;;;15.78;100.00;101333.25;5040421;28;20064;-83
2023/05/09 08:54:24;;;;;;;47.92;31.50;;;;;;;15.76;100.00;101327.06;4982201;28;20076;-81
2023/05/09 08:56:51;;;;;;;45.47;28.85;;;;;;;15.77;100.00;101331.50;4995226;28;20057;-82
2023/05/09 08:59:18;;;;;;;42.53;29.15;;;;;;;15.78;100.00;101333.25;4992016;28;20053;-80
2023/05/09 09:01:46;;;;;;;51.15;30.15;;;;;;;15.77;100.00;101320.88;5030366;28;20056;-81
2023/05/09 09:04:14;;;;;;;45.20;29.45;;;;;;;15.78;100.00;101323.53;4990266;28;20049;-80
2023/05/09 09:06:42;;;;;;;54.63;31.83;;;;;;;15.78;100.00;101322.63;5002466;28;20072;-81
2023/05/09 09:09:10;;;;;;;52.25;33.20;;;;;;;15.79;100.00;101313.78;4979913;28;20049;-81
2023/05/09 09:11:39;;;;;;;54.47;31.55;;;;;;;15.79;100.00;101314.63;4975874;28;20493;-80
2023/05/09 09:14:15;;;;;;;49.22;31.52;;;;;;;15.83;100.00;101304.00;5018449;28;20052;-80
2023/05/09 09:16:45;;;;;;;49.45;30.90;;;;;;;15.90;100.00;101306.56;4979852;28;20041;-80
2023/05/09 09:19:16;;;;;;;53.25;31.65;;;;;;;16.01;100.00;101298.47;4974659;28;20061;-80
2023/05/09 09:21:46;;;;;;;60.50;32.47;;;;;;;16.10;100.00;101293.00;5023799;28;20057;-81
2023/05/09 09:24:16;;;;;;;51.92;32.22;;;;;;;16.19;100.00;101281.38;5017168;28;20072;-80
2023/05/09 09:26:48;;;;;;;59.97;35.75;;;;;;;16.31;100.00;101269.69;4994498;28;20049;-81
2023/05/09 09:29:17;;;;;;;50.90;32.42;;;;;;;16.48;100.00;101273.03;5002896;28;20363;-81
2023/05/09 09:31:46;;;;;;;51.22;32.78;;;;;;;16.69;100.00;101274.47;4993371;28;20049;-80
2023/05/09 09:34:20;;;;;;;53.65;33.53;;;;;;;16.87;100.00;101269.81;4967877;28;20050;-80
2023/05/09 09:36:49;;;;;;;53.60;32.15;;;;;;;17.03;100.00;101270.41;4965940;28;20049;-80
2023/05/09 09:39:16;;;;;;;62.45;36.05;;;;;;;17.15;100.00;101263.09;5008184;28;20050;-80
2023/05/09 09:41:44;;;;;;;51.70;31.27;;;;;;;17.21;100.00;101259.44;4975627;28;20510;-81
2023/05/09 09:44:18;;;;;;;48.28;31.92;;;;;;;17.29;100.00;101252.19;4978014;28;20061;-80
2023/05/09 09:46:50;;;;;;;52.67;31.83;;;;;;;17.37;100.00;101246.72;5001626;28;20049;-80
2023/05/09 09:49:20;;;;;;;54.95;31.85;;;;;;;17.42;100.00;101244.84;5008624;28;20053;-80
2023/05/09 09:51:58;;;;;;;44.83;28.58;;;;;;;17.42;100.00;101247.53;4968577;28;20046;-81
2023/05/09 09:54:26;;;;;;;51.67;32.35;;;;;;;17.42;100.00;101242.19;5022551;28;20403;-81
2023/05/09 09:56:56;;;;;;;48.75;29.67;;;;;;;17.43;100.00;101245.72;5023221;28;20041;-81
2023/05/09 09:59:25;;;;;;;47.90;31.17;;;;;;;17.44;100.00;101248.38;4990040;28;20061;-81
2023/05/09 10:02:02;;;;;;;56.33;30.88;;;;;;;17.43;100.00;101241.31;4999469;28;20037;-81
2023/05/09 10:04:40;;;;;;;55.38;31.75;;;;;;;17.37;100.00;101238.72;5010821;28;20072;-81
2023/05/09 10:07:09;;;;;;;49.58;30.58;;;;;;;17.32;100.00;101241.50;4974319;28;20061;-80
2023/05/09 10:09:42;;;;;;;44.80;29.45;;;;;;;17.32;100.00;101240.63;4984670;28;20038;-81
2023/05/09 10:12:10;;;;;;;47.10;32.08;;;;;;;17.31;100.00;101255.69;4989964;28;20487;-81
2023/05/09 10:14:41;;;;;;;49.30;30.45;;;;;;;17.26;100.00;101241.59;5028321;28;20042;-81
2023/05/09 10:17:12;;;;;;;45.58;27.80;;;;;;;17.27;100.00;101246.00;5000767;28;20069;-81
2023/05/09 10:19:45;;;;;;;48.78;29.75;;;;;;;17.29;100.00;101246.84;5021742;28;20069;-81
2023/05/09 10:22:16;;;;;;;45.42;28.52;;;;;;;17.28;100.00;101244.25;4993774;28;20065;-80
2023/05/09 10:24:44;;;;;;;43.13;27.80;;;;;;;17.32;100.00;101243.28;4963531;28;20041;-80
2023/05/09 10:27:12;;;;;;;44.33;26.88;;;;;;;17.36;100.00;101230.78;4999725;28;20038;-80
2023/05/09 10:29:48;;;;;;;35.35;25.17;;;;;;;17.38;100.00;101229.84;4989612;28;20058;-81
2023/05/09 10:32:22;;;;;;;39.08;26.63;;;;;;;17.46;100.00;101222.56;4989497;28;20060;-80
2023/05/09 10:34:53;;;;;;;44.28;28.80;;;;;;;17.55;100.00;101224.19;5010121;28;20057;-81
2023/05/09 10:37:21;;;;;;;35.67;26.25;;;;;;;17.66;100.00;101222.19;4991889;28;20045;-80
2023/05/09 10:39:52;;;;;;;40.47;27.90;;;;;;;17.74;100.00;101214.03;4946820;28;20079;-81
2023/05/09 10:42:21;;;;;;;41.28;26.48;;;;;;;17.82;100.00;101219.19;4999305;28;20042;-80
2023/05/09 10:44:52;;;;;;;41.80;27.00;;;;;;;17.90;100.00;101210.19;5018641;28;20049;-81
2023/05/09 10:47:26;;;;;;;42.92;27.23;;;;;;;17.96;100.00;101205.59;5003274;28;20054;-80
2023/05/09 10:49:54;;;;;;;38.95;26.75;;;;;;;17.99;100.00;101203.75;4979280;28;20050;-80
2023/05/09 10:52:23;;;;;;;40.22;27.65;;;;;;;17.96;100.00;101208.25;4985990;28;20725;-81
2023/05/09 10:55:01;;;;;;;37.22;25.23;;;;;;;17.90;100.00;101201.28;4928110;28;20061;-82
2023/05/09 10:57:30;;;;;;;37.08;26.02;;;;;;;17.85;100.00;101204.06;4990032;28;20064;-81
2023/05/09 10:59:59;;;;;;;40.15;27.38;;;;;;;17.79;100.00;101197.94;4984533;28;20042;-81
2023/05/09 11:02:29;;;;;;;40.97;27.52;;;;;;;17.72;100.00;101197.19;4990952;28;20056;-81
2023/05/09 11:05:12;;;;;;;;;;;;;;;17.68;100.00;101196.38;4973077;28;20057;-81
2023/05/09 11:07:40;;;;;;;41.30;26.50;;;;;;;17.60;100.00;101193.00;4984551;28;19929;-81
2023/05/09 11:10:09;;;;;;;40.25;26.77;;;;;;;17.54;100.00;101196.69;4984783;28;20057;-80
2023/05/09 11:12:56;;;;;;;42.45;28.65;;;;;;;17.48;100.00;101187.91;4995677;28;20053;-80
2023/05/09 11:15:26;;;;;;;41.25;29.40;;;;;;;17.46;100.00;101189.72;5000694;28;20057;-81